sensor_id;sensor_type;location;lat;lon;timestamp;temperature;humidity
18321;DHT22;54904;54.350;18.664;2023-06-01T00:00:21;19.40;63.00
18321;DHT22;54904;54.350;18.664;2023-06-01T00:02:48;19.40;63.20
18321;DHT22;54904;54.350;18.664;2023-06-01T00:05:15;19.40;63.40
18321;DHT22;54904;54.350;18.664;2023-06-01T00:07:42;19.50;63.60
18321;DHT22;54904;54.350;18.664;2023-06-01T00:10:09;19.40;63.50
18321;DHT22;54904;54.350;18.664;2023-06-01T00:12:37;19.40;63.80
18321;DHT22;54904;54.350;18.664;2023-06-01T00:15:05;19.30;63.90
18321;DHT22;54904;54.350;18.664;2023-06-01T00:17:33;19.30;64.10
18321;DHT22;54904;54.350;18.664;2023-06-01T00:20:01;19.30;64.20
18321;DHT22;54904;54.350;18.664;2023-06-01T00:22:31;19.20;64.30
18321;DHT22;54904;54.350;18.664;2023-06-01T00:24:59;19.20;64.50
18321;DHT22;54904;54.350;18.664;2023-06-01T00:27:26;19.20;64.60
18321;DHT22;54904;54.350;18.664;2023-06-01T00:29:54;19.20;64.60
18321;DHT22;54904;54.350;18.664;2023-06-01T00:32:21;19.20;64.80
18321;DHT22;54904;54.350;18.664;2023-06-01T00:34:49;19.10;64.90
18321;DHT22;54904;54.350;18.664;2023-06-01T00:37:16;19.00;65.00
18321;DHT22;54904;54.350;18.664;2023-06-01T00:39:43;19.00;65.10
18321;DHT22;54904;54.350;18.664;2023-06-01T00:42:12;19.00;65.30
18321;DHT22;54904;54.350;18.664;2023-06-01T00:44:39;19.00;65.50
18321;DHT22;54904;54.350;18.664;2023-06-01T00:47:06;19.00;65.60
18321;DHT22;54904;54.350;18.664;2023-06-01T00:49:34;18.90;65.70
18321;DHT22;54904;54.350;18.664;2023-06-01T00:52:03;18.80;65.90
18321;DHT22;54904;54.350;18.664;2023-06-01T00:54:30;18.80;66.10
18321;DHT22;54904;54.350;18.664;2023-06-01T00:56:57;18.80;66.30
18321;DHT22;54904;54.350;18.664;2023-06-01T00:59:25;18.80;66.40
18321;DHT22;54904;54.350;18.664;2023-06-01T01:01:52;18.70;66.40
18321;DHT22;54904;54.350;18.664;2023-06-01T01:04:19;18.70;66.50
18321;DHT22;54904;54.350;18.664;2023-06-01T01:06:58;18.70;66.50
18321;DHT22;54904;54.350;18.664;2023-06-01T01:09:37;18.70;66.70
18321;DHT22;54904;54.350;18.664;2023-06-01T01:12:12;18.70;66.90
18321;DHT22;54904;54.350;18.664;2023-06-01T01:14:47;18.60;67.00
18321;DHT22;54904;54.350;18.664;2023-06-01T01:17:22;18.60;67.20
18321;DHT22;54904;54.350;18.664;2023-06-01T01:20:02;18.70;67.30
18321;DHT22;54904;54.350;18.664;2023-06-01T01:22:52;18.70;67.40
18321;DHT22;54904;54.350;18.664;2023-06-01T01:25:48;18.60;67.50
18321;DHT22;54904;54.350;18.664;2023-06-01T01:28:32;18.60;67.70
18321;DHT22;54904;54.350;18.664;2023-06-01T01:30:59;18.50;67.80
18321;DHT22;54904;54.350;18.664;2023-06-01T01:33:29;18.50;68.00
18321;DHT22;54904;54.350;18.664;2023-06-01T01:35:56;18.50;68.00
18321;DHT22;54904;54.350;18.664;2023-06-01T01:38:24;18.50;68.20
18321;DHT22;54904;54.350;18.664;2023-06-01T01:40:51;18.40;68.40
18321;DHT22;54904;54.350;18.664;2023-06-01T01:43:18;18.40;68.60
18321;DHT22;54904;54.350;18.664;2023-06-01T01:45:53;18.40;68.70
18321;DHT22;54904;54.350;18.664;2023-06-01T01:48:24;18.40;68.90
18321;DHT22;54904;54.350;18.664;2023-06-01T01:51:00;18.30;68.90
18321;DHT22;54904;54.350;18.664;2023-06-01T01:53:29;18.30;69.10
18321;DHT22;54904;54.350;18.664;2023-06-01T01:55:58;18.30;69.30
18321;DHT22;54904;54.350;18.664;2023-06-01T01:58:26;18.20;69.40
18321;DHT22;54904;54.350;18.664;2023-06-01T02:00:55;18.20;69.70
18321;DHT22;54904;54.350;18.664;2023-06-01T02:03:23;18.20;69.80
18321;DHT22;54904;54.350;18.664;2023-06-01T02:05:50;18.10;69.80
18321;DHT22;54904;54.350;18.664;2023-06-01T02:08:17;18.10;69.90
18321;DHT22;54904;54.350;18.664;2023-06-01T02:10:45;18.10;70.10
18321;DHT22;54904;54.350;18.664;2023-06-01T02:13:12;18.10;70.20
18321;DHT22;54904;54.350;18.664;2023-06-01T02:15:40;18.10;70.20
18321;DHT22;54904;54.350;18.664;2023-06-01T02:18:08;18.00;70.30
18321;DHT22;54904;54.350;18.664;2023-06-01T02:20:36;18.00;70.70
18321;DHT22;54904;54.350;18.664;2023-06-01T02:23:04;18.00;70.80
18321;DHT22;54904;54.350;18.664;2023-06-01T02:25:31;18.10;70.90
18321;DHT22;54904;54.350;18.664;2023-06-01T02:27:58;18.00;70.90
18321;DHT22;54904;54.350;18.664;2023-06-01T02:30:25;18.00;71.00
18321;DHT22;54904;54.350;18.664;2023-06-01T02:32:52;18.00;71.00
18321;DHT22;54904;54.350;18.664;2023-06-01T02:35:21;18.00;71.00
18321;DHT22;54904;54.350;18.664;2023-06-01T02:37:49;18.00;71.10
18321;DHT22;54904;54.350;18.664;2023-06-01T02:40:17;18.00;71.20
18321;DHT22;54904;54.350;18.664;2023-06-01T02:42:44;18.00;71.60
18321;DHT22;54904;54.350;18.664;2023-06-01T02:45:11;18.00;71.90
18321;DHT22;54904;54.350;18.664;2023-06-01T02:47:38;18.00;72.00
18321;DHT22;54904;54.350;18.664;2023-06-01T02:50:06;18.00;72.10
18321;DHT22;54904;54.350;18.664;2023-06-01T02:52:39;18.00;72.10
18321;DHT22;54904;54.350;18.664;2023-06-01T02:55:08;18.00;72.20
18321;DHT22;54904;54.350;18.664;2023-06-01T02:57:50;18.10;72.40
18321;DHT22;54904;54.350;18.664;2023-06-01T03:00:17;18.00;72.40
18321;DHT22;54904;54.350;18.664;2023-06-01T03:02:48;18.00;72.60
18321;DHT22;54904;54.350;18.664;2023-06-01T03:05:15;18.10;73.00
18321;DHT22;54904;54.350;18.664;2023-06-01T03:07:47;18.00;73.20
18321;DHT22;54904;54.350;18.664;2023-06-01T03:10:24;18.00;73.90
18321;DHT22;54904;54.350;18.664;2023-06-01T03:13:12;18.00;73.30
18321;DHT22;54904;54.350;18.664;2023-06-01T03:15:39;18.00;73.40
18321;DHT22;54904;54.350;18.664;2023-06-01T03:18:06;18.00;73.40
18321;DHT22;54904;54.350;18.664;2023-06-01T03:20:35;18.00;73.50
18321;DHT22;54904;54.350;18.664;2023-06-01T03:23:03;18.00;73.60
18321;DHT22;54904;54.350;18.664;2023-06-01T03:25:30;18.00;73.80
18321;DHT22;54904;54.350;18.664;2023-06-01T03:27:59;18.00;73.90
18321;DHT22;54904;54.350;18.664;2023-06-01T03:30:27;17.90;74.00
18321;DHT22;54904;54.350;18.664;2023-06-01T03:32:54;17.90;74.20
18321;DHT22;54904;54.350;18.664;2023-06-01T03:35:21;17.80;74.40
18321;DHT22;54904;54.350;18.664;2023-06-01T03:37:49;17.80;74.50
18321;DHT22;54904;54.350;18.664;2023-06-01T03:40:20;17.80;74.60
18321;DHT22;54904;54.350;18.664;2023-06-01T03:42:48;17.80;74.70
18321;DHT22;54904;54.350;18.664;2023-06-01T03:45:15;17.70;74.70
18321;DHT22;54904;54.350;18.664;2023-06-01T03:47:43;17.70;74.80
18321;DHT22;54904;54.350;18.664;2023-06-01T03:50:10;17.70;74.80
18321;DHT22;54904;54.350;18.664;2023-06-01T03:52:39;17.80;75.00
18321;DHT22;54904;54.350;18.664;2023-06-01T03:55:07;17.80;75.00
18321;DHT22;54904;54.350;18.664;2023-06-01T03:57:59;17.80;75.10
18321;DHT22;54904;54.350;18.664;2023-06-01T04:00:29;17.80;75.10
18321;DHT22;54904;54.350;18.664;2023-06-01T04:02:59;17.80;75.30
18321;DHT22;54904;54.350;18.664;2023-06-01T04:05:27;17.80;75.30
18321;DHT22;54904;54.350;18.664;2023-06-01T04:07:55;17.90;75.40
18321;DHT22;54904;54.350;18.664;2023-06-01T04:10:22;17.90;75.60
18321;DHT22;54904;54.350;18.664;2023-06-01T04:12:50;17.90;75.70
18321;DHT22;54904;54.350;18.664;2023-06-01T04:15:20;17.90;75.70
18321;DHT22;54904;54.350;18.664;2023-06-01T04:17:47;17.90;76.80
18321;DHT22;54904;54.350;18.664;2023-06-01T04:20:15;17.80;76.20
18321;DHT22;54904;54.350;18.664;2023-06-01T04:22:44;17.80;76.50
18321;DHT22;54904;54.350;18.664;2023-06-01T04:25:13;17.90;76.60
18321;DHT22;54904;54.350;18.664;2023-06-01T04:27:44;17.90;76.70
18321;DHT22;54904;54.350;18.664;2023-06-01T04:30:13;17.90;76.80
18321;DHT22;54904;54.350;18.664;2023-06-01T04:32:43;17.90;76.90
18321;DHT22;54904;54.350;18.664;2023-06-01T04:35:12;17.90;77.00
18321;DHT22;54904;54.350;18.664;2023-06-01T04:37:40;17.90;77.10
18321;DHT22;54904;54.350;18.664;2023-06-01T04:40:10;18.00;77.30
18321;DHT22;54904;54.350;18.664;2023-06-01T04:42:41;18.00;77.60
18321;DHT22;54904;54.350;18.664;2023-06-01T04:45:11;18.10;77.80
18321;DHT22;54904;54.350;18.664;2023-06-01T04:47:42;18.10;77.90
18321;DHT22;54904;54.350;18.664;2023-06-01T04:50:17;18.10;77.90
18321;DHT22;54904;54.350;18.664;2023-06-01T04:52:44;18.20;78.00
18321;DHT22;54904;54.350;18.664;2023-06-01T04:55:12;18.20;78.00
18321;DHT22;54904;54.350;18.664;2023-06-01T04:57:40;18.30;78.20
18321;DHT22;54904;54.350;18.664;2023-06-01T05:00:10;18.40;78.20
18321;DHT22;54904;54.350;18.664;2023-06-01T05:02:38;18.40;78.10
18321;DHT22;54904;54.350;18.664;2023-06-01T05:05:08;18.50;78.00
18321;DHT22;54904;54.350;18.664;2023-06-01T05:07:36;18.50;78.00
18321;DHT22;54904;54.350;18.664;2023-06-01T05:10:05;18.50;78.10
18321;DHT22;54904;54.350;18.664;2023-06-01T05:12:42;18.60;78.10
18321;DHT22;54904;54.350;18.664;2023-06-01T05:15:10;18.60;78.10
18321;DHT22;54904;54.350;18.664;2023-06-01T05:17:39;19.50;79.00
18321;DHT22;54904;54.350;18.664;2023-06-01T05:20:14;18.60;78.00
18321;DHT22;54904;54.350;18.664;2023-06-01T05:22:44;18.70;78.10
18321;DHT22;54904;54.350;18.664;2023-06-01T05:25:12;18.70;78.00
18321;DHT22;54904;54.350;18.664;2023-06-01T05:27:40;18.60;77.80
18321;DHT22;54904;54.350;18.664;2023-06-01T05:30:07;18.70;77.90
18321;DHT22;54904;54.350;18.664;2023-06-01T05:32:35;18.70;77.80
18321;DHT22;54904;54.350;18.664;2023-06-01T05:35:09;18.80;77.80
18321;DHT22;54904;54.350;18.664;2023-06-01T05:37:38;18.80;77.70
18321;DHT22;54904;54.350;18.664;2023-06-01T05:40:06;18.80;77.50
18321;DHT22;54904;54.350;18.664;2023-06-01T05:42:35;18.80;77.50
18321;DHT22;54904;54.350;18.664;2023-06-01T05:45:03;18.90;77.50
18321;DHT22;54904;54.350;18.664;2023-06-01T05:47:31;18.90;77.40
18321;DHT22;54904;54.350;18.664;2023-06-01T05:49:58;19.00;77.40
18321;DHT22;54904;54.350;18.664;2023-06-01T05:52:26;19.00;77.20
18321;DHT22;54904;54.350;18.664;2023-06-01T05:54:54;19.00;77.00
18321;DHT22;54904;54.350;18.664;2023-06-01T05:57:21;19.00;76.60
18321;DHT22;54904;54.350;18.664;2023-06-01T05:59:49;19.00;76.20
18321;DHT22;54904;54.350;18.664;2023-06-01T06:02:17;19.00;75.80
18321;DHT22;54904;54.350;18.664;2023-06-01T06:04:44;19.00;75.60
18321;DHT22;54904;54.350;18.664;2023-06-01T06:07:11;19.10;75.50
18321;DHT22;54904;54.350;18.664;2023-06-01T06:09:39;19.10;75.40
18321;DHT22;54904;54.350;18.664;2023-06-01T06:12:08;19.10;75.10
18321;DHT22;54904;54.350;18.664;2023-06-01T06:14:35;19.10;75.00
18321;DHT22;54904;54.350;18.664;2023-06-01T06:17:02;19.20;75.00
18321;DHT22;54904;54.350;18.664;2023-06-01T06:19:30;19.30;75.00
18321;DHT22;54904;54.350;18.664;2023-06-01T06:21:57;19.30;74.80
18321;DHT22;54904;54.350;18.664;2023-06-01T06:24:24;19.40;74.40
18321;DHT22;54904;54.350;18.664;2023-06-01T06:26:51;19.40;74.00
18321;DHT22;54904;54.350;18.664;2023-06-01T06:29:19;19.40;73.60
18321;DHT22;54904;54.350;18.664;2023-06-01T06:31:46;19.40;73.30
18321;DHT22;54904;54.350;18.664;2023-06-01T06:34:15;19.40;73.20
18321;DHT22;54904;54.350;18.664;2023-06-01T06:36:42;19.40;73.10
18321;DHT22;54904;54.350;18.664;2023-06-01T06:39:09;19.40;73.10
18321;DHT22;54904;54.350;18.664;2023-06-01T06:41:36;19.50;73.10
18321;DHT22;54904;54.350;18.664;2023-06-01T06:44:04;19.50;72.90
18321;DHT22;54904;54.350;18.664;2023-06-01T06:46:32;19.60;72.90
18321;DHT22;54904;54.350;18.664;2023-06-01T06:48:59;19.70;72.80
18321;DHT22;54904;54.350;18.664;2023-06-01T06:51:26;19.70;72.60
18321;DHT22;54904;54.350;18.664;2023-06-01T06:53:53;19.80;72.40
18321;DHT22;54904;54.350;18.664;2023-06-01T06:56:20;19.80;72.30
18321;DHT22;54904;54.350;18.664;2023-06-01T06:58:48;19.80;72.20
18321;DHT22;54904;54.350;18.664;2023-06-01T07:01:15;19.90;72.20
18321;DHT22;54904;54.350;18.664;2023-06-01T07:03:43;19.90;72.10
18321;DHT22;54904;54.350;18.664;2023-06-01T07:06:10;19.90;72.00
18321;DHT22;54904;54.350;18.664;2023-06-01T07:08:38;20.00;72.10
18321;DHT22;54904;54.350;18.664;2023-06-01T07:11:05;20.00;71.80
18321;DHT22;54904;54.350;18.664;2023-06-01T07:13:32;20.10;71.80
18321;DHT22;54904;54.350;18.664;2023-06-01T07:15:59;20.10;71.50
18321;DHT22;54904;54.350;18.664;2023-06-01T07:18:27;20.20;71.40
18321;DHT22;54904;54.350;18.664;2023-06-01T07:20:56;20.20;71.30
18321;DHT22;54904;54.350;18.664;2023-06-01T07:23:24;20.20;71.10
18321;DHT22;54904;54.350;18.664;2023-06-01T07:25:51;20.30;71.00
18321;DHT22;54904;54.350;18.664;2023-06-01T07:28:19;20.30;70.80
18321;DHT22;54904;54.350;18.664;2023-06-01T07:30:46;20.40;70.70
18321;DHT22;54904;54.350;18.664;2023-06-01T07:33:13;20.40;70.60
18321;DHT22;54904;54.350;18.664;2023-06-01T07:35:40;20.50;70.40
18321;DHT22;54904;54.350;18.664;2023-06-01T07:38:09;20.50;70.20
18321;DHT22;54904;54.350;18.664;2023-06-01T07:40:37;20.60;70.30
18321;DHT22;54904;54.350;18.664;2023-06-01T07:43:04;20.60;70.20
18321;DHT22;54904;54.350;18.664;2023-06-01T07:45:31;20.70;70.20
18321;DHT22;54904;54.350;18.664;2023-06-01T07:59:36;20.70;69.30
18321;DHT22;54904;54.350;18.664;2023-06-01T08:02:03;21.60;69.40
18321;DHT22;54904;54.350;18.664;2023-06-01T08:04:30;21.60;69.00
18321;DHT22;54904;54.350;18.664;2023-06-01T08:06:59;21.60;68.70
18321;DHT22;54904;54.350;18.664;2023-06-01T08:09:29;21.60;68.50
18321;DHT22;54904;54.350;18.664;2023-06-01T08:11:56;21.70;68.50
18321;DHT22;54904;54.350;18.664;2023-06-01T08:14:24;21.70;68.30
18321;DHT22;54904;54.350;18.664;2023-06-01T08:16:52;21.70;68.10
18321;DHT22;54904;54.350;18.664;2023-06-01T08:19:19;21.70;68.00
18321;DHT22;54904;54.350;18.664;2023-06-01T08:21:46;21.70;67.70
18321;DHT22;54904;54.350;18.664;2023-06-01T08:24:13;21.80;67.70
18321;DHT22;54904;54.350;18.664;2023-06-01T08:26:42;21.80;67.50
18321;DHT22;54904;54.350;18.664;2023-06-01T08:29:09;21.90;67.40
18321;DHT22;54904;54.350;18.664;2023-06-01T08:31:37;21.90;67.30
18321;DHT22;54904;54.350;18.664;2023-06-01T08:34:05;22.00;67.30
18321;DHT22;54904;54.350;18.664;2023-06-01T08:36:32;21.90;67.70
18321;DHT22;54904;54.350;18.664;2023-06-01T08:38:59;22.00;66.80
18321;DHT22;54904;54.350;18.664;2023-06-01T08:41:34;21.90;66.60
18321;DHT22;54904;54.350;18.664;2023-06-01T08:44:04;22.00;66.70
18321;DHT22;54904;54.350;18.664;2023-06-01T08:46:32;22.00;66.60
18321;DHT22;54904;54.350;18.664;2023-06-01T08:49:00;22.10;66.70
18321;DHT22;54904;54.350;18.664;2023-06-01T08:51:32;22.10;66.60
18321;DHT22;54904;54.350;18.664;2023-06-01T08:54:04;22.20;66.60
18321;DHT22;54904;54.350;18.664;2023-06-01T08:56:33;22.20;66.60
18321;DHT22;54904;54.350;18.664;2023-06-01T08:59:00;22.20;66.60
18321;DHT22;54904;54.350;18.664;2023-06-01T09:01:28;22.40;66.70
18321;DHT22;54904;54.350;18.664;2023-06-01T09:03:55;22.40;66.50
18321;DHT22;54904;54.350;18.664;2023-06-01T09:06:22;22.50;66.20
18321;DHT22;54904;54.350;18.664;2023-06-01T09:08:50;22.50;65.80
18321;DHT22;54904;54.350;18.664;2023-06-01T09:11:17;22.60;65.60
18321;DHT22;54904;54.350;18.664;2023-06-01T09:13:46;22.70;65.50
18321;DHT22;54904;54.350;18.664;2023-06-01T09:16:13;22.80;65.30
18321;DHT22;54904;54.350;18.664;2023-06-01T09:18:51;22.80;64.90
18321;DHT22;54904;54.350;18.664;2023-06-01T09:21:19;22.90;64.90
18321;DHT22;54904;54.350;18.664;2023-06-01T09:23:46;23.00;64.70
18321;DHT22;54904;54.350;18.664;2023-06-01T09:26:17;23.00;64.50
18321;DHT22;54904;54.350;18.664;2023-06-01T09:28:54;23.00;64.30
18321;DHT22;54904;54.350;18.664;2023-06-01T09:31:38;23.10;64.20
18321;DHT22;54904;54.350;18.664;2023-06-01T09:34:06;23.00;63.90
18321;DHT22;54904;54.350;18.664;2023-06-01T09:36:34;23.10;63.40
18321;DHT22;54904;54.350;18.664;2023-06-01T09:39:03;23.10;63.10
18321;DHT22;54904;54.350;18.664;2023-06-01T09:41:50;23.10;63.10
18321;DHT22;54904;54.350;18.664;2023-06-01T09:44:25;23.10;62.90
18321;DHT22;54904;54.350;18.664;2023-06-01T09:46:54;23.20;63.00
18321;DHT22;54904;54.350;18.664;2023-06-01T09:49:22;23.20;62.70
18321;DHT22;54904;54.350;18.664;2023-06-01T09:51:51;23.30;62.70
18321;DHT22;54904;54.350;18.664;2023-06-01T09:54:23;23.30;62.70
18321;DHT22;54904;54.350;18.664;2023-06-01T09:56:52;23.40;62.70
18321;DHT22;54904;54.350;18.664;2023-06-01T09:59:20;23.50;62.70
18321;DHT22;54904;54.350;18.664;2023-06-01T10:01:50;23.60;62.70
18321;DHT22;54904;54.350;18.664;2023-06-01T10:04:21;23.60;62.40
18321;DHT22;54904;54.350;18.664;2023-06-01T10:06:51;23.70;62.40
18321;DHT22;54904;54.350;18.664;2023-06-01T10:09:19;23.70;62.10
18321;DHT22;54904;54.350;18.664;2023-06-01T10:11:47;23.70;62.00
18321;DHT22;54904;54.350;18.664;2023-06-01T10:14:16;23.80;62.00
18321;DHT22;54904;54.350;18.664;2023-06-01T10:16:44;23.80;61.70
18321;DHT22;54904;54.350;18.664;2023-06-01T10:19:12;23.80;61.90
18321;DHT22;54904;54.350;18.664;2023-06-01T10:21:39;23.90;61.80
18321;DHT22;54904;54.350;18.664;2023-06-01T10:24:08;23.90;61.60
18321;DHT22;54904;54.350;18.664;2023-06-01T10:26:42;24.00;61.60
18321;DHT22;54904;54.350;18.664;2023-06-01T10:29:11;24.00;61.30
18321;DHT22;54904;54.350;18.664;2023-06-01T10:31:41;24.00;61.00
18321;DHT22;54904;54.350;18.664;2023-06-01T10:34:09;24.00;60.40
18321;DHT22;54904;54.350;18.664;2023-06-01T10:37:10;24.00;60.40
18321;DHT22;54904;54.350;18.664;2023-06-01T10:39:38;24.00;60.30
18321;DHT22;54904;54.350;18.664;2023-06-01T10:42:37;24.10;60.20
18321;DHT22;54904;54.350;18.664;2023-06-01T10:47:49;24.00;59.80
18321;DHT22;54904;54.350;18.664;2023-06-01T10:50:17;24.10;59.90
18321;DHT22;54904;54.350;18.664;2023-06-01T10:53:28;24.10;59.80
18321;DHT22;54904;54.350;18.664;2023-06-01T10:56:20;24.10;59.70
18321;DHT22;54904;54.350;18.664;2023-06-01T10:59:11;24.10;59.70
18321;DHT22;54904;54.350;18.664;2023-06-01T11:01:43;24.30;60.00
18321;DHT22;54904;54.350;18.664;2023-06-01T11:04:12;24.30;60.00
18321;DHT22;54904;54.350;18.664;2023-06-01T11:06:40;24.40;60.00
18321;DHT22;54904;54.350;18.664;2023-06-01T11:09:09;24.40;60.10
18321;DHT22;54904;54.350;18.664;2023-06-01T11:12:02;24.40;60.20
18321;DHT22;54904;54.350;18.664;2023-06-01T11:14:30;24.30;60.20
18321;DHT22;54904;54.350;18.664;2023-06-01T11:17:27;24.20;60.10
18321;DHT22;54904;54.350;18.664;2023-06-01T11:20:07;24.20;60.00
18321;DHT22;54904;54.350;18.664;2023-06-01T11:22:38;24.20;59.60
18321;DHT22;54904;54.350;18.664;2023-06-01T11:25:07;24.30;59.70
18321;DHT22;54904;54.350;18.664;2023-06-01T11:27:36;24.40;59.80
18321;DHT22;54904;54.350;18.664;2023-06-01T11:30:05;24.50;59.90
18321;DHT22;54904;54.350;18.664;2023-06-01T11:32:36;24.50;59.90
18321;DHT22;54904;54.350;18.664;2023-06-01T11:35:18;24.60;60.10
18321;DHT22;54904;54.350;18.664;2023-06-01T11:37:51;24.60;60.00
18321;DHT22;54904;54.350;18.664;2023-06-01T11:40:20;24.60;60.80
18321;DHT22;54904;54.350;18.664;2023-06-01T11:42:48;24.50;60.00
18321;DHT22;54904;54.350;18.664;2023-06-01T11:45:17;24.50;60.00
18321;DHT22;54904;54.350;18.664;2023-06-01T11:47:45;24.50;60.10
18321;DHT22;54904;54.350;18.664;2023-06-01T11:50:31;24.50;60.00
18321;DHT22;54904;54.350;18.664;2023-06-01T11:53:00;24.50;60.10
18321;DHT22;54904;54.350;18.664;2023-06-01T11:55:27;24.40;60.30
18321;DHT22;54904;54.350;18.664;2023-06-01T11:57:57;24.40;60.60
18321;DHT22;54904;54.350;18.664;2023-06-01T12:00:25;24.30;60.70
18321;DHT22;54904;54.350;18.664;2023-06-01T12:03:05;24.30;60.90
18321;DHT22;54904;54.350;18.664;2023-06-01T12:05:39;24.20;61.00
18321;DHT22;54904;54.350;18.664;2023-06-01T12:08:13;24.20;61.00
18321;DHT22;54904;54.350;18.664;2023-06-01T12:10:42;24.10;61.20
18321;DHT22;54904;54.350;18.664;2023-06-01T12:13:10;24.00;61.30
18321;DHT22;54904;54.350;18.664;2023-06-01T12:15:38;24.00;61.60
18321;DHT22;54904;54.350;18.664;2023-06-01T12:18:05;24.00;61.70
18321;DHT22;54904;54.350;18.664;2023-06-01T12:20:34;24.00;61.70
18321;DHT22;54904;54.350;18.664;2023-06-01T12:23:12;24.00;62.20
18321;DHT22;54904;54.350;18.664;2023-06-01T12:25:48;24.00;62.20
18321;DHT22;54904;54.350;18.664;2023-06-01T12:28:17;24.00;62.00
18321;DHT22;54904;54.350;18.664;2023-06-01T12:30:45;23.90;61.40
18321;DHT22;54904;54.350;18.664;2023-06-01T12:33:32;23.90;61.50
18321;DHT22;54904;54.350;18.664;2023-06-01T12:36:00;23.80;61.50
18321;DHT22;54904;54.350;18.664;2023-06-01T12:38:28;23.80;61.50
18321;DHT22;54904;54.350;18.664;2023-06-01T12:41:07;23.80;62.00
18321;DHT22;54904;54.350;18.664;2023-06-01T12:43:35;23.80;61.90
18321;DHT22;54904;54.350;18.664;2023-06-01T12:46:03;23.70;61.90
18321;DHT22;54904;54.350;18.664;2023-06-01T12:48:32;23.70;62.10
18321;DHT22;54904;54.350;18.664;2023-06-01T12:50:59;23.70;63.00
18321;DHT22;54904;54.350;18.664;2023-06-01T12:53:28;23.70;63.00
18321;DHT22;54904;54.350;18.664;2023-06-01T12:55:55;23.70;63.30
18321;DHT22;54904;54.350;18.664;2023-06-01T12:58:22;23.70;63.50
18321;DHT22;54904;54.350;18.664;2023-06-01T13:00:49;23.80;64.40
18321;DHT22;54904;54.350;18.664;2023-06-01T13:03:16;23.80;63.50
18321;DHT22;54904;54.350;18.664;2023-06-01T13:05:43;23.90;63.60
18321;DHT22;54904;54.350;18.664;2023-06-01T13:08:11;23.80;63.50
18321;DHT22;54904;54.350;18.664;2023-06-01T13:10:40;23.80;63.60
18321;DHT22;54904;54.350;18.664;2023-06-01T13:13:07;23.90;63.70
18321;DHT22;54904;54.350;18.664;2023-06-01T13:15:34;23.90;63.60
18321;DHT22;54904;54.350;18.664;2023-06-01T13:18:02;23.90;63.50
18321;DHT22;54904;54.350;18.664;2023-06-01T13:20:29;23.80;63.10
18321;DHT22;54904;54.350;18.664;2023-06-01T13:22:56;23.80;62.80
18321;DHT22;54904;54.350;18.664;2023-06-01T13:25:23;23.70;62.70
18321;DHT22;54904;54.350;18.664;2023-06-01T13:27:52;23.70;62.70
18321;DHT22;54904;54.350;18.664;2023-06-01T13:30:19;23.60;62.70
18321;DHT22;54904;54.350;18.664;2023-06-01T13:32:46;23.50;62.50
18321;DHT22;54904;54.350;18.664;2023-06-01T13:35:13;23.40;62.60
18321;DHT22;54904;54.350;18.664;2023-06-01T13:37:40;23.30;63.00
18321;DHT22;54904;54.350;18.664;2023-06-01T13:40:08;23.30;63.10
18321;DHT22;54904;54.350;18.664;2023-06-01T13:42:35;23.20;63.00
18321;DHT22;54904;54.350;18.664;2023-06-01T13:45:05;23.10;63.10
18321;DHT22;54904;54.350;18.664;2023-06-01T13:47:34;23.10;63.30
18321;DHT22;54904;54.350;18.664;2023-06-01T13:50:01;23.00;63.20
18321;DHT22;54904;54.350;18.664;2023-06-01T13:52:29;23.10;63.20
18321;DHT22;54904;54.350;18.664;2023-06-01T13:54:56;23.10;63.20
18321;DHT22;54904;54.350;18.664;2023-06-01T13:57:23;23.00;63.00
18321;DHT22;54904;54.350;18.664;2023-06-01T13:59:50;22.90;63.00
18321;DHT22;54904;54.350;18.664;2023-06-01T14:02:19;22.90;63.10
18321;DHT22;54904;54.350;18.664;2023-06-01T14:04:46;22.90;63.10
18321;DHT22;54904;54.350;18.664;2023-06-01T14:07:13;22.90;63.30
18321;DHT22;54904;54.350;18.664;2023-06-01T14:09:40;22.90;63.30
18321;DHT22;54904;54.350;18.664;2023-06-01T14:12:08;22.90;63.20
18321;DHT22;54904;54.350;18.664;2023-06-01T14:14:35;22.90;63.20
18321;DHT22;54904;54.350;18.664;2023-06-01T14:17:02;22.90;63.10
18321;DHT22;54904;54.350;18.664;2023-06-01T14:19:31;22.80;62.80
18321;DHT22;54904;54.350;18.664;2023-06-01T14:21:58;22.80;62.80
18321;DHT22;54904;54.350;18.664;2023-06-01T14:24:25;22.80;63.00
18321;DHT22;54904;54.350;18.664;2023-06-01T14:26:52;22.80;63.00
18321;DHT22;54904;54.350;18.664;2023-06-01T14:29:19;22.80;63.10
18321;DHT22;54904;54.350;18.664;2023-06-01T14:31:47;22.80;63.00
18321;DHT22;54904;54.350;18.664;2023-06-01T14:34:14;22.80;63.00
18321;DHT22;54904;54.350;18.664;2023-06-01T14:36:42;22.80;63.00
18321;DHT22;54904;54.350;18.664;2023-06-01T14:39:09;22.80;63.00
18321;DHT22;54904;54.350;18.664;2023-06-01T14:41:37;22.80;63.10
18321;DHT22;54904;54.350;18.664;2023-06-01T14:44:04;22.80;63.00
18321;DHT22;54904;54.350;18.664;2023-06-01T14:46:31;22.60;62.70
18321;DHT22;54904;54.350;18.664;2023-06-01T14:48:58;22.60;63.80
18321;DHT22;54904;54.350;18.664;2023-06-01T14:51:28;22.50;63.00
18321;DHT22;54904;54.350;18.664;2023-06-01T14:53:57;22.50;62.90
18321;DHT22;54904;54.350;18.664;2023-06-01T14:56:24;22.50;62.80
18321;DHT22;54904;54.350;18.664;2023-06-01T14:58:51;22.40;63.00
18321;DHT22;54904;54.350;18.664;2023-06-01T15:01:19;22.30;63.10
18321;DHT22;54904;54.350;18.664;2023-06-01T15:03:46;22.30;63.20
18321;DHT22;54904;54.350;18.664;2023-06-01T15:06:13;22.30;63.40
18321;DHT22;54904;54.350;18.664;2023-06-01T15:08:40;22.30;63.50
18321;DHT22;54904;54.350;18.664;2023-06-01T15:11:08;22.20;63.50
18321;DHT22;54904;54.350;18.664;2023-06-01T15:13:35;22.20;63.50
18321;DHT22;54904;54.350;18.664;2023-06-01T15:16:03;22.20;63.50
18321;DHT22;54904;54.350;18.664;2023-06-01T15:18:30;22.20;63.50
18321;DHT22;54904;54.350;18.664;2023-06-01T15:20:57;22.10;63.40
18321;DHT22;54904;54.350;18.664;2023-06-01T15:23:26;22.00;63.30
18321;DHT22;54904;54.350;18.664;2023-06-01T15:25:53;21.90;63.40
18321;DHT22;54904;54.350;18.664;2023-06-01T15:28:22;21.90;63.50
18321;DHT22;54904;54.350;18.664;2023-06-01T15:30:49;21.90;63.70
18321;DHT22;54904;54.350;18.664;2023-06-01T15:33:16;21.90;63.60
18321;DHT22;54904;54.350;18.664;2023-06-01T15:35:43;21.90;63.70
18321;DHT22;54904;54.350;18.664;2023-06-01T15:38:10;21.90;63.70
18321;DHT22;54904;54.350;18.664;2023-06-01T15:40:38;21.90;63.70
18321;DHT22;54904;54.350;18.664;2023-06-01T15:43:05;21.90;63.70